Time;durP1;ratioP1;P1;durP2;ratioP2;P2;SDS_P1;SDS_P2;PMS_P1;PMS_P2;Temp;Humidity;BMP_temperature;BMP_pressure;BME280_temperature;BME280_humidity;BME280_pressure;Samples;Min_cycle;Max_cycle;Signal;HPM_P1;HPM_P2
2022/06/16 00:00:36;;;;;;;5.93;5.33;;;25.50;44.70;;;;;;5072919;27;20468;-88
2022/06/16 00:03:05;;;;;;;6.43;5.50;;;25.50;44.80;;;;;;5083678;28;20447;-88
2022/06/16 00:05:35;;;;;;;5.60;5.10;;;25.40;44.90;;;;;;5082795;28;20455;-89
2022/06/16 00:08:04;;;;;;;5.70;5.20;;;25.30;44.80;;;;;;5101120;27;20530;-89
2022/06/16 00:10:32;;;;;;;8.23;6.20;;;25.30;45.10;;;;;;5102353;27;20553;-87
2022/06/16 00:12:59;;;;;;;7.07;5.33;;;25.30;45.10;;;;;;5103099;27;20443;-88
2022/06/16 00:15:29;;;;;;;6.30;5.80;;;25.30;45.30;;;;;;5094916;27;20432;-87
2022/06/16 00:17:56;;;;;;;6.90;6.10;;;25.30;45.60;;;;;;5098540;27;21017;-88
2022/06/16 00:20:23;;;;;;;6.80;6.20;;;25.30;46.10;;;;;;5083441;27;20447;-89
2022/06/16 00:22:51;;;;;;;7.50;6.17;;;25.20;46.30;;;;;;5082234;28;20543;-88
2022/06/16 00:25:19;;;;;;;7.03;6.30;;;25.20;46.50;;;;;;5102066;27;20486;-89
2022/06/16 00:27:46;;;;;;;7.47;6.07;;;25.10;46.60;;;;;;5098020;27;20900;-88
2022/06/16 00:30:14;;;;;;;7.07;6.47;;;25.10;47.10;;;;;;5096595;27;20466;-89
2022/06/16 00:32:42;;;;;;;6.37;5.70;;;25.10;47.10;;;;;;5116418;27;20464;-88
2022/06/16 00:35:11;;;;;;;6.97;6.27;;;25.00;47.30;;;;;;5068057;28;20439;-88
2022/06/16 00:37:38;;;;;;;6.93;5.90;;;25.00;47.20;;;;;;5057027;28;20540;-90
2022/06/16 00:40:07;;;;;;;6.50;5.90;;;25.00;47.70;;;;;;5082809;28;20462;-89
2022/06/16 00:42:35;;;;;;;7.00;6.40;;;24.90;47.70;;;;;;5081190;27;21037;-88
2022/06/16 00:45:03;;;;;;;6.17;5.67;;;24.80;47.70;;;;;;5065744;27;20990;-90
2022/06/16 00:47:31;;;;;;;11.40;6.53;;;24.80;47.40;;;;;;5059744;27;20470;-88
2022/06/16 00:50:01;;;;;;;6.60;6.00;;;24.70;47.50;;;;;;5080034;28;20562;-88
2022/06/16 00:52:32;;;;;;;9.87;6.00;;;24.70;48.10;;;;;;5091338;27;20504;-88
2022/06/16 00:55:03;;;;;;;7.10;6.43;;;24.70;48.50;;;;;;5100060;27;20451;-89
2022/06/16 00:57:34;;;;;;;7.23;6.47;;;24.70;48.80;;;;;;5096127;28;20857;-89
2022/06/16 01:00:09;;;;;;;7.30;6.47;;;24.70;48.90;;;;;;5077521;28;20451;-89
2022/06/16 01:02:36;;;;;;;7.20;6.50;;;24.60;48.80;;;;;;5083681;28;20487;-88
2022/06/16 01:05:02;;;;;;;6.40;5.80;;;24.50;48.20;;;;;;5099000;27;20976;-89
2022/06/16 01:07:34;;;;;;;6.90;6.30;;;24.40;47.50;;;;;;5085256;28;20490;-88
2022/06/16 01:10:02;;;;;;;8.07;6.20;;;24.30;47.50;;;;;;5098528;28;20450;-89
2022/06/16 01:15:51;;;;;;;8.50;7.60;;;24.40;47.10;;;;;;5088648;28;20438;-88
2022/06/16 01:18:29;;;;;;;7.00;6.30;;;24.30;47.30;;;;;;5103916;27;20447;-89
2022/06/16 01:21:04;;;;;;;8.90;6.40;;;24.30;47.30;;;;;;5081292;28;20442;-88
2022/06/16 01:24:03;;;;;;;6.33;5.77;;;24.30;47.30;;;;;;5098602;28;20743;-89
2022/06/16 01:26:53;;;;;;;6.23;5.73;;;24.30;47.20;;;;;;5081478;28;21037;-89
2022/06/16 01:29:28;;;;;;;8.13;6.40;;;24.20;47.60;;;;;;5101935;28;20474;-88
2022/06/16 01:32:05;;;;;;;6.33;5.83;;;24.20;47.80;;;;;;5068932;28;20469;-88
2022/06/16 01:34:42;;;;;;;7.17;6.47;;;24.10;47.80;;;;;;5082108;28;20505;-89
2022/06/16 01:37:17;;;;;;;7.10;6.40;;;24.00;47.70;;;;;;5097216;28;20474;-89
2022/06/16 01:39:50;;;;;;;7.00;6.30;;;24.00;47.60;;;;;;5093976;27;21087;-89
2022/06/16 01:42:24;;;;;;;8.20;6.97;;;24.00;47.40;;;;;;5070038;28;20447;-88
2022/06/16 01:44:58;;;;;;;6.47;5.83;;;23.90;47.40;;;;;;5074550;28;20443;-89
2022/06/16 01:47:30;;;;;;;8.83;5.90;;;23.90;47.70;;;;;;5086019;28;20474;-88
2022/06/16 01:50:05;;;;;;;5.73;5.13;;;23.90;47.80;;;;;;5104931;27;20458;-89
2022/06/16 01:52:37;;;;;;;6.90;5.80;;;23.80;48.00;;;;;;5089334;27;20889;-88
2022/06/16 01:55:08;;;;;;;6.90;5.40;;;23.80;48.00;;;;;;5086073;27;20463;-88
2022/06/16 01:57:40;;;;;;;6.00;5.40;;;23.70;48.30;;;;;;5069630;27;20478;-88
2022/06/16 02:00:10;;;;;;;6.63;5.70;;;23.70;48.30;;;;;;5092765;27;20453;-89
2022/06/16 02:02:51;;;;;;;7.50;6.40;;;23.70;47.70;;;;;;5102813;27;20451;-88
2022/06/16 02:05:24;;;;;;;6.70;5.80;;;23.70;47.90;;;;;;5069570;27;20440;-88
2022/06/16 02:07:55;;;;;;;5.73;5.23;;;23.60;48.30;;;;;;5065813;27;20531;-90
2022/06/16 02:10:28;;;;;;;6.30;5.70;;;23.60;48.30;;;;;;5094162;27;20479;-88
2022/06/16 02:12:59;;;;;;;7.23;6.07;;;23.50;48.30;;;;;;5105564;27;20458;-88
2022/06/16 02:15:52;;;;;;;6.70;6.00;;;23.50;48.20;;;;;;5097687;27;20454;-89
2022/06/16 02:18:21;;;;;;;6.53;6.00;;;23.50;48.20;;;;;;5084234;27;20477;-89
2022/06/16 02:20:53;;;;;;;6.57;5.83;;;23.40;48.20;;;;;;5100895;27;20444;-89
2022/06/16 02:23:20;;;;;;;6.50;5.83;;;23.40;48.20;;;;;;5085059;28;20474;-88
2022/06/16 02:25:51;;;;;;;6.60;5.90;;;23.40;48.00;;;;;;5087105;27;20461;-87
2022/06/16 02:28:18;;;;;;;7.30;6.60;;;23.30;48.00;;;;;;5102913;27;20490;-88
2022/06/16 02:30:59;;;;;;;6.30;5.80;;;23.20;48.20;;;;;;5093910;27;21115;-88
2022/06/16 02:33:38;;;;;;;6.50;5.93;;;23.20;48.10;;;;;;5079652;27;20960;-88
2022/06/16 02:36:18;;;;;;;7.40;5.80;;;23.20;48.20;;;;;;5078472;27;20822;-88
2022/06/16 02:38:55;;;;;;;6.93;6.33;;;23.20;49.10;;;;;;5105625;27;20446;-89
2022/06/16 02:41:32;;;;;;;7.97;6.40;;;23.20;48.90;;;;;;5083724;28;20534;-88
2022/06/16 02:44:10;;;;;;;5.90;5.23;;;23.10;48.90;;;;;;5074528;27;20442;-89
2022/06/16 02:46:53;;;;;;;6.90;6.30;;;23.10;49.10;;;;;;5096717;27;20501;-87
2022/06/16 02:49:30;;;;;;;8.00;6.27;;;23.10;49.20;;;;;;5081875;28;21307;-88
2022/06/16 02:52:08;;;;;;;6.20;5.63;;;23.00;48.80;;;;;;5084514;28;20446;-90
2022/06/16 02:54:44;;;;;;;7.73;6.13;;;23.00;48.60;;;;;;5085719;28;20992;-90
2022/06/16 02:57:15;;;;;;;6.47;5.90;;;23.00;48.60;;;;;;5068053;27;20740;-88
2022/06/16 02:59:48;;;;;;;5.87;5.30;;;22.90;48.70;;;;;;5085538;27;20482;-89
2022/06/16 03:02:21;;;;;;;6.80;6.10;;;22.90;48.60;;;;;;5070447;27;20446;-89
2022/06/16 03:04:51;;;;;;;6.87;6.17;;;22.90;48.80;;;;;;5080953;27;20451;-89
2022/06/16 03:07:20;;;;;;;6.30;5.70;;;22.80;49.00;;;;;;5086310;27;20481;-87
2022/06/16 03:09:55;;;;;;;6.53;6.03;;;22.80;49.10;;;;;;5086750;28;20462;-89
2022/06/16 03:12:23;;;;;;;7.50;6.80;;;22.70;49.30;;;;;;5070255;28;20459;-88
2022/06/16 03:14:50;;;;;;;7.50;6.80;;;22.70;49.80;;;;;;5104083;27;20448;-88
2022/06/16 03:17:19;;;;;;;7.17;6.47;;;22.70;50.10;;;;;;5072240;27;20479;-89
2022/06/16 03:19:48;;;;;;;8.10;6.60;;;22.60;50.40;;;;;;5102991;27;20455;-88
2022/06/16 03:22:14;;;;;;;6.93;6.13;;;22.60;50.60;;;;;;5071166;27;20452;-89
2022/06/16 03:24:42;;;;;;;6.83;6.23;;;22.60;50.80;;;;;;5071695;27;20542;-91
2022/06/16 03:27:11;;;;;;;6.80;6.30;;;22.60;50.70;;;;;;5085782;27;20477;-89
2022/06/16 03:29:41;;;;;;;6.90;6.30;;;22.60;50.70;;;;;;5065908;28;20536;-89
2022/06/16 03:32:10;;;;;;;7.10;6.40;;;22.60;50.60;;;;;;5086318;28;20877;-90
2022/06/16 03:34:39;;;;;;;6.60;6.00;;;22.50;50.10;;;;;;5069385;27;20459;-89
2022/06/16 03:37:32;;;;;;;8.03;7.33;;;22.10;50.60;;;;;;5083283;27;20482;-88
2022/06/16 03:40:04;;;;;;;7.47;5.93;;;22.10;50.80;;;;;;5103291;27;20454;-90
2022/06/16 03:42:31;;;;;;;8.03;6.97;;;22.20;50.60;;;;;;5092337;27;20512;-88
2022/06/16 03:45:00;;;;;;;7.30;6.70;;;22.20;51.00;;;;;;5085878;27;20983;-89
2022/06/16 03:47:29;;;;;;;7.83;7.00;;;22.20;51.00;;;;;;5103266;27;20978;-88
2022/06/16 03:49:57;;;;;;;8.37;6.70;;;22.20;51.20;;;;;;5082786;28;20496;-89
2022/06/16 03:52:33;;;;;;;8.07;7.27;;;22.30;51.50;;;;;;5104112;27;20492;-87
2022/06/16 03:55:00;;;;;;;9.07;6.43;;;22.20;52.20;;;;;;5090119;27;20470;-88
2022/06/16 03:57:28;;;;;;;8.77;7.30;;;22.20;52.30;;;;;;5085392;28;21161;-88
2022/06/16 03:59:56;;;;;;;11.90;7.00;;;22.30;52.40;;;;;;5051493;28;20967;-90
2022/06/16 04:02:42;;;;;;;8.70;7.80;;;22.30;52.30;;;;;;5095087;27;20442;-88
2022/06/16 04:05:11;;;;;;;7.93;7.20;;;22.30;52.70;;;;;;5086682;27;20450;-89
2022/06/16 04:07:44;;;;;;;9.20;6.87;;;22.30;52.60;;;;;;5071484;27;20467;-88
2022/06/16 04:10:20;;;;;;;8.23;6.97;;;22.30;52.50;;;;;;5067839;28;20486;-89
2022/06/16 04:12:47;;;;;;;8.33;7.30;;;22.30;52.40;;;;;;5085957;28;20490;-87
2022/06/16 04:15:20;;;;;;;7.47;6.63;;;22.30;52.60;;;;;;5083876;27;20481;-89
2022/06/16 04:17:47;;;;;;;7.20;6.40;;;22.20;52.50;;;;;;5067247;28;20458;-89
2022/06/16 04:20:29;;;;;;;6.37;5.77;;;22.20;52.50;;;;;;5066438;27;20565;-88
2022/06/16 04:23:00;;;;;;;7.67;6.67;;;22.20;51.90;;;;;;5081815;28;20930;-90
2022/06/16 04:25:31;;;;;;;7.30;5.70;;;22.10;51.40;;;;;;5070755;27;20452;-88
2022/06/16 04:28:04;;;;;;;7.57;6.87;;;22.10;51.60;;;;;;5073994;27;20466;-89
2022/06/16 04:30:35;;;;;;;7.00;6.40;;;22.20;51.30;;;;;;5064583;27;20861;-89
2022/06/16 04:33:02;;;;;;;6.77;6.07;;;22.20;51.10;;;;;;5063992;27;20447;-90
2022/06/16 04:35:32;;;;;;;6.50;5.90;;;22.20;51.40;;;;;;5066651;27;20448;-88
2022/06/16 04:38:05;;;;;;;6.47;5.90;;;22.20;51.40;;;;;;5039816;27;20459;-87
2022/06/16 04:40:34;;;;;;;6.90;6.20;;;22.20;51.10;;;;;;5073715;27;20476;-87
2022/06/16 04:43:06;;;;;;;6.93;6.33;;;22.30;51.10;;;;;;5051052;28;20943;-89
2022/06/16 04:45:33;;;;;;;6.47;5.87;;;22.30;51.10;;;;;;5071671;28;20491;-89
2022/06/16 04:48:00;;;;;;;7.40;6.70;;;22.40;51.20;;;;;;5053720;27;20558;-89
2022/06/16 04:50:33;;;;;;;6.77;6.07;;;22.30;51.20;;;;;;5086525;27;20536;-90
2022/06/16 04:53:00;;;;;;;7.37;6.40;;;22.20;51.00;;;;;;5067139;27;20447;-87
2022/06/16 04:55:32;;;;;;;8.17;6.10;;;22.20;51.10;;;;;;5070174;27;20444;-90
2022/06/16 04:58:26;;;;;;;7.40;6.60;;;22.20;51.10;;;;;;5079227;28;20509;-88
2022/06/16 05:01:04;;;;;;;10.37;7.33;;;22.20;51.20;;;;;;5043896;28;20450;-90
2022/06/16 05:03:51;;;;;;;8.00;6.03;;;22.20;51.30;;;;;;5065148;28;21205;-88
2022/06/16 05:06:26;;;;;;;7.83;6.67;;;22.10;51.40;;;;;;5084531;28;20477;-89
2022/06/16 05:08:58;;;;;;;12.07;6.90;;;22.20;52.00;;;;;;5064895;28;20459;-88
2022/06/16 05:11:46;;;;;;;15.50;6.90;;;22.20;51.90;;;;;;5069959;28;20488;-86
2022/06/16 05:14:40;;;;;;;6.73;6.10;;;22.00;51.60;;;;;;5078010;28;21285;-87
2022/06/16 05:17:25;;;;;;;6.40;5.80;;;22.00;51.90;;;;;;5067122;28;20474;-88
2022/06/16 05:20:09;;;;;;;7.50;6.90;;;22.10;52.00;;;;;;5062749;28;20450;-87
2022/06/16 05:22:56;;;;;;;8.13;7.33;;;22.20;51.80;;;;;;5093873;28;21384;-86
2022/06/16 05:25:34;;;;;;;11.40;6.50;;;22.30;51.60;;;;;;5062700;28;20818;-87
2022/06/16 05:28:19;;;;;;;7.80;7.00;;;22.40;51.70;;;;;;5079390;28;21099;-87
2022/06/16 05:31:10;;;;;;;8.80;6.60;;;22.50;50.90;;;;;;5066298;28;21012;-87
2022/06/16 05:33:52;;;;;;;8.37;6.63;;;22.70;50.60;;;;;;5049866;28;20442;-86
2022/06/16 05:36:54;;;;;;;9.13;6.33;;;22.80;50.20;;;;;;5032462;28;21274;-87
2022/06/16 05:39:34;;;;;;;6.00;5.50;;;22.80;50.00;;;;;;5067660;28;20964;-87
2022/06/16 05:42:21;;;;;;;7.33;6.60;;;22.80;50.40;;;;;;5051060;28;20454;-88
2022/06/16 05:44:57;;;;;;;8.00;6.53;;;22.70;50.50;;;;;;5052337;28;20486;-89
2022/06/16 05:47:47;;;;;;;6.20;5.60;;;22.70;50.90;;;;;;5034937;28;20559;-88
2022/06/16 05:50:16;;;;;;;12.90;7.00;;;22.70;50.80;;;;;;5063940;28;20463;-88
2022/06/16 05:52:44;;;;;;;6.60;5.90;;;22.90;50.80;;;;;;5062628;28;20532;-87
2022/06/16 05:55:27;;;;;;;6.57;5.87;;;23.10;50.40;;;;;;5076415;28;20442;-87
2022/06/16 05:57:54;;;;;;;15.13;6.70;;;23.10;50.20;;;;;;5093197;28;20467;-87
2022/06/16 06:00:22;;;;;;;7.27;6.23;;;23.10;50.30;;;;;;5096003;28;20450;-87
2022/06/16 06:02:57;;;;;;;7.00;6.33;;;23.10;50.20;;;;;;5081119;28;20430;-88
2022/06/16 06:05:26;;;;;;;6.67;6.07;;;23.20;50.40;;;;;;5048402;28;20430;-88
2022/06/16 06:16:35;;;;;;;6.57;5.97;;;23.30;50.40;;;;;;5079256;28;20990;-86
2022/06/16 06:19:23;;;;;;;6.43;5.83;;;23.30;50.00;;;;;;5095923;28;20545;-89
2022/06/16 06:22:00;;;;;;;6.97;6.40;;;23.00;50.20;;;;;;5061767;28;20475;-88
2022/06/16 06:24:30;;;;;;;6.50;6.00;;;23.00;50.60;;;;;;5052671;27;20450;-89
2022/06/16 06:27:02;;;;;;;7.50;6.80;;;23.00;50.10;;;;;;5049767;27;20474;-88
2022/06/16 06:29:29;;;;;;;6.57;5.93;;;23.00;50.00;;;;;;5065538;27;20449;-88
2022/06/16 06:31:58;;;;;;;7.43;6.77;;;23.00;50.20;;;;;;5064914;27;20459;-87
2022/06/16 06:34:26;;;;;;;7.40;5.90;;;23.30;50.30;;;;;;5073924;27;20454;-87
2022/06/16 06:36:53;;;;;;;6.63;6.03;;;23.50;49.60;;;;;;5053612;27;20549;-87
2022/06/16 06:39:20;;;;;;;8.00;7.20;;;23.60;49.60;;;;;;5067953;27;21166;-88
2022/06/16 06:41:47;;;;;;;6.67;5.87;;;23.90;49.50;;;;;;5082550;28;20466;-88
2022/06/16 06:44:15;;;;;;;8.30;6.60;;;24.00;48.80;;;;;;5082444;27;20450;-88
2022/06/16 06:46:43;;;;;;;7.23;6.53;;;24.30;49.70;;;;;;5083556;28;20508;-88
2022/06/16 06:49:10;;;;;;;6.47;5.87;;;24.50;48.30;;;;;;5099090;27;20449;-87
2022/06/16 06:51:37;;;;;;;6.60;6.00;;;24.40;48.20;;;;;;5078187;28;21440;-87
2022/06/16 06:54:05;;;;;;;10.00;6.27;;;24.20;48.70;;;;;;5094194;27;20604;-87
2022/06/16 06:56:33;;;;;;;6.73;6.07;;;24.20;49.00;;;;;;5068956;27;20471;-88
2022/06/16 06:59:03;;;;;;;7.20;6.50;;;24.40;49.40;;;;;;5081055;28;20458;-86
2022/06/16 07:01:32;;;;;;;6.57;5.90;;;24.80;48.20;;;;;;5070745;27;21045;-87
2022/06/16 07:04:00;;;;;;;6.73;6.07;;;24.90;47.60;;;;;;5066611;27;20452;-87
2022/06/16 07:06:28;;;;;;;6.67;6.00;;;25.00;48.00;;;;;;5102359;27;20478;-87
2022/06/16 07:08:55;;;;;;;6.97;6.20;;;25.20;47.00;;;;;;5101021;27;21161;-87
2022/06/16 07:11:22;;;;;;;8.73;5.87;;;25.40;46.00;;;;;;5082797;27;20494;-88
2022/06/16 07:13:50;;;;;;;8.20;6.17;;;25.60;46.30;;;;;;5065100;27;21006;-85
2022/06/16 07:16:17;;;;;;;6.40;5.80;;;25.60;46.00;;;;;;5088928;27;20479;-87
2022/06/16 07:18:46;;;;;;;6.03;5.47;;;25.40;45.00;;;;;;5079298;27;20578;-87
2022/06/16 07:21:14;;;;;;;6.87;5.67;;;25.20;44.60;;;;;;5098859;27;20454;-88
2022/06/16 07:27:41;;;;;;;7.23;6.17;;;25.30;43.10;;;;;;5073024;27;20453;-87
2022/06/16 07:30:14;;;;;;;6.13;5.63;;;25.70;42.80;;;;;;5048838;27;20817;-87
2022/06/16 07:32:41;;;;;;;10.07;5.40;;;25.90;43.30;;;;;;5098708;27;20455;-86
2022/06/16 07:35:10;;;;;;;6.30;5.70;;;25.90;43.20;;;;;;5080433;27;20447;-87
2022/06/16 07:37:37;;;;;;;5.77;5.27;;;25.90;43.10;;;;;;5083098;28;20567;-88
2022/06/16 07:40:05;;;;;;;5.67;5.17;;;26.00;43.30;;;;;;5073616;28;20461;-89
2022/06/16 07:42:33;;;;;;;6.33;5.77;;;26.00;43.10;;;;;;5098018;27;20466;-87
2022/06/16 07:45:01;;;;;;;5.63;5.13;;;26.20;42.60;;;;;;5077670;28;20443;-89
2022/06/16 07:47:28;;;;;;;6.37;5.80;;;26.30;42.80;;;;;;5081099;27;20978;-89
2022/06/16 07:49:56;;;;;;;5.70;5.10;;;26.50;42.60;;;;;;5083061;28;20446;-88
2022/06/16 07:52:24;;;;;;;6.30;5.80;;;26.70;42.80;;;;;;5102983;27;20841;-88
2022/06/16 07:54:51;;;;;;;7.80;6.03;;;27.00;43.10;;;;;;5083962;28;20954;-87
2022/06/16 07:57:19;;;;;;;7.43;6.73;;;27.20;41.60;;;;;;5099394;27;20467;-88
2022/06/16 07:59:48;;;;;;;8.60;6.27;;;27.20;41.80;;;;;;5068309;27;20449;-87
2022/06/16 08:02:15;;;;;;;7.50;6.83;;;27.30;41.30;;;;;;5062483;28;20462;-89
2022/06/16 08:04:42;;;;;;;6.97;6.47;;;27.30;40.80;;;;;;5079604;28;20462;-88
2022/06/16 08:07:09;;;;;;;7.20;6.07;;;27.30;39.90;;;;;;5079294;27;20459;-88
2022/06/16 08:09:38;;;;;;;6.87;6.27;;;27.40;39.00;;;;;;5100321;27;20919;-88
2022/06/16 08:12:08;;;;;;;7.37;6.07;;;27.60;37.10;;;;;;5098321;27;20470;-88
2022/06/16 08:14:38;;;;;;;6.43;5.50;;;27.70;39.00;;;;;;5078065;28;21023;-87
2022/06/16 08:17:07;;;;;;;6.67;6.03;;;27.90;38.60;;;;;;5067119;27;20463;-88
2022/06/16 08:19:34;;;;;;;5.70;5.00;;;28.00;38.40;;;;;;5068049;28;20458;-87
2022/06/16 08:22:01;;;;;;;6.70;6.00;;;28.20;38.60;;;;;;5103448;27;20447;-88
2022/06/16 08:24:28;;;;;;;6.13;5.60;;;28.30;39.10;;;;;;5098452;27;20442;-88
2022/06/16 08:26:57;;;;;;;7.93;5.30;;;28.50;38.00;;;;;;5083126;28;20989;-89
2022/06/16 08:29:24;;;;;;;6.13;5.50;;;28.50;38.90;;;;;;5082214;27;20438;-89
2022/06/16 08:31:51;;;;;;;7.13;5.57;;;28.70;38.50;;;;;;5079847;28;20528;-87
2022/06/16 08:34:18;;;;;;;10.80;6.27;;;28.90;39.20;;;;;;5096637;27;20458;-90
2022/06/16 08:36:45;;;;;;;8.00;5.67;;;28.90;38.50;;;;;;5082709;28;20467;-89
2022/06/16 08:39:12;;;;;;;6.27;5.67;;;29.10;38.80;;;;;;5066221;28;20459;-89
2022/06/16 08:41:46;;;;;;;7.73;5.87;;;29.30;38.20;;;;;;5048981;28;20892;-86
2022/06/16 08:44:21;;;;;;;6.73;6.00;;;29.30;37.80;;;;;;5100303;27;20453;-88
2022/06/16 08:47:01;;;;;;;10.07;5.70;;;29.50;39.50;;;;;;5077845;28;21032;-88
2022/06/16 08:49:36;;;;;;;6.30;4.90;;;29.40;37.50;;;;;;5080404;28;20525;-91
2022/06/16 08:52:18;;;;;;;6.93;4.90;;;29.10;38.20;;;;;;5054767;28;20638;-89
2022/06/16 08:55:01;;;;;;;5.20;4.80;;;29.30;37.20;;;;;;5096901;27;20963;-90
2022/06/16 08:57:37;;;;;;;5.70;5.23;;;29.30;36.60;;;;;;5101077;27;20470;-90
2022/06/16 09:00:09;;;;;;;6.13;4.70;;;29.60;38.00;;;;;;5067113;28;20441;-89
2022/06/16 09:02:46;;;;;;;5.20;4.70;;;30.00;36.00;;;;;;5050191;27;20626;-88
2022/06/16 09:05:23;;;;;;;5.00;4.50;;;30.10;35.90;;;;;;5052813;27;20444;-89
2022/06/16 09:07:56;;;;;;;3.83;3.60;;;30.40;35.70;;;;;;5099129;27;20557;-89
2022/06/16 09:10:33;;;;;;;4.53;4.00;;;30.50;34.80;;;;;;5082177;28;21042;-87
2022/06/16 09:13:24;;;;;;;4.57;4.17;;;30.40;34.90;;;;;;5064784;28;20548;-89
2022/06/16 09:16:05;;;;;;;4.40;3.97;;;30.50;35.00;;;;;;5079584;28;20542;-89
2022/06/16 09:18:57;;;;;;;5.13;4.60;;;30.50;34.30;;;;;;5084139;28;20454;-90
2022/06/16 09:21:32;;;;;;;4.20;3.80;;;30.60;33.50;;;;;;5059336;28;20451;-88
2022/06/16 09:24:29;;;;;;;4.50;3.80;;;30.70;32.90;;;;;;5063403;28;20478;-88
2022/06/16 09:27:01;;;;;;;4.43;3.70;;;30.90;32.00;;;;;;5062941;28;20501;-88
2022/06/16 09:29:35;;;;;;;4.03;3.20;;;31.10;33.50;;;;;;5099593;28;20458;-90
2022/06/16 09:32:10;;;;;;;6.30;4.50;;;31.00;31.20;;;;;;5083061;28;20455;-87
2022/06/16 09:34:44;;;;;;;4.60;4.20;;;31.10;31.90;;;;;;5083389;28;20857;-89
2022/06/16 09:37:21;;;;;;;3.70;3.40;;;31.30;32.10;;;;;;5079658;28;20467;-88
2022/06/16 09:39:53;;;;;;;5.50;3.57;;;31.40;31.00;;;;;;5081831;28;20446;-88
2022/06/16 09:42:36;;;;;;;4.17;3.70;;;31.70;31.60;;;;;;5098047;28;20442;-92
2022/06/16 09:45:12;;;;;;;4.00;3.60;;;31.80;30.40;;;;;;5087004;28;20669;-88
2022/06/16 09:47:46;;;;;;;4.00;3.70;;;32.00;31.00;;;;;;5081362;28;20467;-86
2022/06/16 09:50:22;;;;;;;3.77;3.47;;;32.10;30.10;;;;;;5102598;28;20544;-88
2022/06/16 09:52:54;;;;;;;5.23;3.60;;;32.30;29.80;;;;;;5059086;28;20459;-88
2022/06/16 09:55:26;;;;;;;4.67;4.03;;;32.50;30.00;;;;;;5061626;28;20820;-88
2022/06/16 09:57:58;;;;;;;4.03;3.63;;;32.70;29.30;;;;;;5071463;28;20462;-89
2022/06/16 10:00:26;;;;;;;4.27;3.30;;;32.80;30.00;;;;;;5100708;27;20549;-89
2022/06/16 10:02:57;;;;;;;4.73;3.67;;;33.10;30.90;;;;;;5096418;27;20477;-90
2022/06/16 10:05:34;;;;;;;7.13;3.97;;;33.20;29.00;;;;;;5085125;27;21033;-91
2022/06/16 10:08:05;;;;;;;4.57;3.50;;;33.40;28.20;;;;;;5082616;27;20477;-88
2022/06/16 10:10:39;;;;;;;7.47;3.60;;;33.40;28.30;;;;;;5084160;28;20450;-89
2022/06/16 10:13:15;;;;;;;4.10;3.70;;;33.40;26.90;;;;;;5059880;27;20588;-87
2022/06/16 10:15:48;;;;;;;5.00;3.53;;;33.30;29.50;;;;;;5068934;28;20545;-88
2022/06/16 10:18:18;;;;;;;4.00;3.27;;;33.40;28.10;;;;;;5086447;27;20475;-89
2022/06/16 10:20:46;;;;;;;4.50;3.63;;;33.30;28.10;;;;;;5100411;27;20449;-92
2022/06/16 10:23:18;;;;;;;3.77;3.47;;;33.30;27.80;;;;;;5049400;27;20505;-87
2022/06/16 10:25:48;;;;;;;5.23;3.40;;;33.10;27.90;;;;;;5092439;27;20563;-88
2022/06/16 10:28:29;;;;;;;3.43;3.13;;;33.40;28.40;;;;;;5104565;27;20435;-89
2022/06/16 10:30:57;;;;;;;3.93;3.63;;;33.40;27.40;;;;;;5101888;27;20458;-90
2022/06/16 10:33:28;;;;;;;6.43;3.80;;;33.20;27.80;;;;;;5083584;28;20841;-89
2022/06/16 10:35:58;;;;;;;5.77;4.00;;;33.30;28.70;;;;;;5081922;27;20465;-87
2022/06/16 10:38:34;;;;;;;3.90;3.60;;;33.20;27.60;;;;;;5091487;27;20477;-90
2022/06/16 10:41:04;;;;;;;7.60;4.27;;;33.00;27.60;;;;;;5055749;28;20446;-87
2022/06/16 10:43:37;;;;;;;3.70;3.43;;;33.20;28.40;;;;;;5105773;27;20432;-88
2022/06/16 10:46:11;;;;;;;5.10;4.07;;;33.40;28.50;;;;;;5100630;27;20531;-88
2022/06/16 10:48:48;;;;;;;6.83;3.83;;;33.90;28.40;;;;;;5086572;27;20446;-90
2022/06/16 10:51:20;;;;;;;4.13;3.47;;;33.70;27.10;;;;;;5079136;27;20463;-89
2022/06/16 10:54:00;;;;;;;5.70;4.23;;;33.70;27.90;;;;;;5064649;28;20468;-90
2022/06/16 10:56:28;;;;;;;5.30;3.93;;;33.90;27.60;;;;;;5060171;28;20840;-89
2022/06/16 10:59:00;;;;;;;4.30;3.87;;;34.00;27.20;;;;;;5102057;27;20794;-91
2022/06/16 11:01:35;;;;;;;4.00;3.60;;;33.90;26.80;;;;;;5099848;27;20500;-90
2022/06/16 11:04:09;;;;;;;4.87;4.57;;;33.40;27.30;;;;;;5101358;27;20482;-89
2022/06/16 11:06:39;;;;;;;4.10;3.77;;;33.40;27.50;;;;;;5101509;27;20999;-90
2022/06/16 11:09:07;;;;;;;5.43;4.10;;;33.50;27.60;;;;;;5102468;27;21331;-89
2022/06/16 11:11:40;;;;;;;4.37;4.00;;;33.60;27.90;;;;;;5086284;27;20444;-88
2022/06/16 11:14:14;;;;;;;3.60;3.30;;;33.90;27.90;;;;;;5100957;27;20499;-88
2022/06/16 11:16:48;;;;;;;5.20;3.90;;;34.00;28.00;;;;;;5101908;27;20480;-89
2022/06/16 11:19:25;;;;;;;3.93;3.63;;;34.00;27.90;;;;;;5085080;28;20461;-89
2022/06/16 11:21:53;;;;;;;4.20;3.80;;;34.40;27.20;;;;;;5084259;28;20478;-89
2022/06/16 11:24:27;;;;;;;3.80;3.50;;;34.10;27.30;;;;;;5087308;27;20443;-88
2022/06/16 11:27:05;;;;;;;3.70;3.40;;;34.00;27.30;;;;;;5099429;27;20966;-88
2022/06/16 11:29:34;;;;;;;4.23;3.50;;;34.10;27.70;;;;;;5063733;27;21188;-89
2022/06/16 11:32:10;;;;;;;4.27;3.50;;;34.00;26.70;;;;;;5101988;27;20466;-86
2022/06/16 11:34:42;;;;;;;4.03;3.60;;;34.00;27.40;;;;;;5102551;27;20443;-88
2022/06/16 11:37:45;;;;;;;3.97;3.67;;;34.10;27.10;;;;;;5087875;27;21011;-90
2022/06/16 11:40:35;;;;;;;5.77;4.10;;;34.30;26.70;;;;;;5098878;27;20445;-89
2022/06/16 11:43:13;;;;;;;5.10;4.33;;;34.30;27.50;;;;;;5106010;27;20541;-90
2022/06/16 11:45:45;;;;;;;3.50;3.30;;;34.00;27.50;;;;;;5086050;28;20958;-90
2022/06/16 11:48:22;;;;;;;7.60;3.67;;;34.10;27.80;;;;;;5100445;27;20509;-89
2022/06/16 11:50:59;;;;;;;4.17;3.87;;;34.30;28.10;;;;;;5070049;28;20455;-91
2022/06/16 11:53:34;;;;;;;4.30;3.90;;;34.80;27.00;;;;;;5095939;27;20466;-88
2022/06/16 11:56:04;;;;;;;4.47;4.07;;;34.60;27.10;;;;;;5103440;27;21010;-91
2022/06/16 11:58:47;;;;;;;4.37;3.83;;;34.20;27.20;;;;;;5101501;27;20543;-89
2022/06/16 12:01:21;;;;;;;4.20;3.80;;;34.00;27.40;;;;;;5101131;27;20439;-90
2022/06/16 12:04:37;;;;;;;3.90;3.60;;;33.80;28.20;;;;;;5076842;27;20450;-89
2022/06/16 12:07:25;;;;;;;6.17;3.80;;;33.70;28.50;;;;;;5074854;27;20470;-93
2022/06/16 12:09:59;;;;;;;6.23;3.93;;;33.60;28.50;;;;;;5090176;28;20447;-94
2022/06/16 12:12:33;;;;;;;3.97;3.60;;;33.20;28.20;;;;;;5086358;27;20446;-89
2022/06/16 12:15:08;;;;;;;5.23;4.10;;;32.90;28.70;;;;;;5102202;27;20473;-90
2022/06/16 12:17:41;;;;;;;6.20;3.70;;;32.80;28.60;;;;;;5086921;28;20466;-89
2022/06/16 12:20:13;;;;;;;5.40;3.90;;;33.20;28.30;;;;;;5050588;27;20456;-91
2022/06/16 12:22:46;;;;;;;3.87;3.53;;;33.30;27.50;;;;;;5100217;28;20446;-89
2022/06/16 12:25:18;;;;;;;5.73;3.77;;;33.50;27.40;;;;;;5086376;28;20435;-88
2022/06/16 12:27:52;;;;;;;7.33;3.87;;;33.60;27.80;;;;;;5082859;28;20997;-90
2022/06/16 12:30:24;;;;;;;3.90;3.50;;;33.90;27.20;;;;;;5083787;28;21141;-89
2022/06/16 12:33:00;;;;;;;3.80;3.30;;;34.00;27.10;;;;;;5065794;28;20479;-86
2022/06/16 12:35:34;;;;;;;3.80;3.47;;;34.00;27.20;;;;;;5072352;28;20442;-90
2022/06/16 12:38:15;;;;;;;3.77;3.47;;;33.80;26.50;;;;;;5101389;27;20543;-89
2022/06/16 12:40:46;;;;;;;5.03;3.50;;;33.80;26.30;;;;;;5094411;27;20804;-89
2022/06/16 12:43:18;;;;;;;5.00;3.10;;;34.00;27.20;;;;;;5100164;27;20470;-91
2022/06/16 12:49:55;;;;;;;4.03;3.63;;;34.40;25.70;;;;;;5091196;27;20433;-86
2022/06/16 12:52:26;;;;;;;3.03;2.70;;;34.40;24.50;;;;;;5099227;27;20435;-91
2022/06/16 12:55:00;;;;;;;3.10;2.87;;;34.40;23.90;;;;;;5071482;27;20487;-85
2022/06/16 12:57:32;;;;;;;3.67;3.13;;;34.20;23.60;;;;;;5096543;27;20466;-92
2022/06/16 13:00:02;;;;;;;3.53;3.30;;;33.60;25.90;;;;;;5099256;27;20528;-88
2022/06/16 13:02:34;;;;;;;3.67;3.23;;;33.70;26.00;;;;;;5078662;28;20434;-86
2022/06/16 13:05:08;;;;;;;2.67;2.47;;;33.90;26.30;;;;;;5114953;27;20808;-88
2022/06/16 13:07:38;;;;;;;2.80;2.60;;;33.90;24.70;;;;;;5083265;28;20462;-89
2022/06/16 13:10:09;;;;;;;3.23;3.00;;;34.00;24.30;;;;;;5103252;27;20538;-88
2022/06/16 13:12:43;;;;;;;2.93;2.80;;;34.00;24.20;;;;;;5083307;27;20454;-87
2022/06/16 13:15:16;;;;;;;3.30;2.93;;;34.00;23.90;;;;;;5100971;27;20451;-90
2022/06/16 13:17:50;;;;;;;3.97;3.20;;;34.00;24.20;;;;;;5099874;28;20463;-84
2022/06/16 13:20:20;;;;;;;4.93;3.20;;;34.00;23.30;;;;;;5117828;27;21187;-89
2022/06/16 13:22:55;;;;;;;5.43;2.80;;;34.00;23.60;;;;;;5093676;28;20458;-89
2022/06/16 13:25:46;;;;;;;3.30;3.00;;;33.80;24.10;;;;;;5089633;28;20584;-90
2022/06/16 13:28:17;;;;;;;2.90;2.70;;;33.70;25.20;;;;;;5078363;28;20470;-88
2022/06/16 13:31:01;;;;;;;3.40;2.67;;;34.00;23.70;;;;;;5084019;28;20888;-87
2022/06/16 13:33:43;;;;;;;5.47;2.70;;;33.60;24.10;;;;;;5069827;28;20466;-92
2022/06/16 13:36:18;;;;;;;2.70;2.50;;;33.70;23.50;;;;;;5071913;28;20454;-89